createdAt,value
2022-11-03T00:01:39.878Z,5.97
2022-11-03T00:04:11.271Z,5.96
2022-11-03T00:06:38.377Z,5.78
2022-11-03T00:09:08.512Z,5.88
2022-11-03T00:11:39.746Z,5.83
2022-11-03T00:14:07.038Z,5.91
2022-11-03T00:16:33.902Z,5.85
2022-11-03T00:19:00.947Z,5.89
2022-11-03T00:21:28.064Z,5.96
2022-11-03T00:23:57.271Z,5.94
2022-11-03T00:26:28.775Z,5.96
2022-11-03T00:28:57.304Z,6.14
2022-11-03T00:31:31.338Z,6.16
2022-11-03T00:33:59.227Z,6.23
2022-11-03T00:36:28.579Z,6.22
2022-11-03T00:38:55.734Z,6.14
2022-11-03T00:41:24.021Z,6.17
2022-11-03T00:43:51.695Z,6.16
2022-11-03T00:46:20.070Z,6.23
2022-11-03T00:48:47.029Z,6.31
2022-11-03T00:51:15.805Z,6.35
2022-11-03T00:53:47.934Z,6.32
2022-11-03T00:56:17.119Z,6.42
2022-11-03T00:58:44.198Z,6.52
2022-11-03T01:01:14.698Z,6.58
2022-11-03T01:04:03.373Z,6.66
2022-11-03T01:06:50.692Z,6.72
2022-11-03T01:09:24.475Z,6.86
2022-11-03T01:11:53.993Z,6.87
2022-11-03T01:14:20.514Z,6.84
2022-11-03T01:16:47.117Z,6.95
2022-11-03T01:19:13.728Z,6.94
2022-11-03T01:21:40.338Z,7.01
2022-11-03T01:24:07.028Z,7.05
2022-11-03T01:26:33.604Z,7.18
2022-11-03T01:29:00.595Z,7.22
2022-11-03T01:31:28.222Z,7.24
2022-11-03T01:33:56.583Z,7.26
2022-11-03T01:36:24.137Z,7.37
2022-11-03T01:38:51.039Z,7.31
2022-11-03T01:41:20.532Z,7.26
2022-11-03T01:44:04.928Z,7.30
2022-11-03T01:46:31.785Z,7.48
2022-11-03T01:49:11.024Z,7.47
2022-11-03T01:51:39.371Z,7.59
2022-11-03T01:54:10.659Z,7.70
2022-11-03T01:56:41.063Z,7.71
2022-11-03T01:59:07.976Z,7.80
2022-11-03T02:01:35.108Z,7.88
2022-11-03T02:04:10.365Z,7.95
2022-11-03T02:06:37.449Z,7.96
2022-11-03T02:09:07.386Z,8.04
2022-11-03T02:11:53.715Z,8.12
2022-11-03T02:14:20.722Z,8.12
2022-11-03T02:16:57.881Z,8.18
2022-11-03T02:19:50.519Z,8.09
2022-11-03T02:22:59.174Z,8.12
2022-11-03T02:25:37.297Z,8.10
2022-11-03T02:28:05.863Z,8.06
2022-11-03T02:30:49.747Z,8.09
2022-11-03T02:33:45.547Z,7.99
2022-11-03T02:36:18.373Z,7.97
2022-11-03T02:38:55.764Z,8.02
2022-11-03T02:41:24.446Z,8.09
2022-11-03T02:43:52.238Z,8.16
2022-11-03T02:46:19.641Z,8.07
2022-11-03T02:48:47.730Z,8.08
2022-11-03T02:51:14.267Z,8.14
2022-11-03T02:53:49.863Z,8.16
2022-11-03T02:56:23.182Z,8.08
2022-11-03T02:58:54.766Z,8.07
2022-11-03T03:01:47.657Z,8.18
2022-11-03T03:04:25.792Z,8.11
2022-11-03T03:06:57.426Z,8.12
2022-11-03T03:09:41.068Z,8.17
2022-11-03T03:12:10.647Z,8.15
2022-11-03T03:14:41.822Z,8.08
2022-11-03T03:17:34.139Z,7.95
2022-11-03T03:20:23.069Z,7.89
2022-11-03T03:22:56.825Z,7.91
2022-11-03T03:25:39.650Z,7.88
2022-11-03T03:28:22.495Z,8.04
2022-11-03T03:30:50.565Z,7.97
2022-11-03T03:33:18.591Z,7.97
2022-11-03T03:35:49.689Z,7.89
2022-11-03T03:38:26.065Z,7.80
2022-11-03T03:40:55.848Z,7.68
2022-11-03T03:43:24.013Z,7.78
2022-11-03T03:45:53.330Z,7.91
2022-11-03T03:48:20.232Z,7.83
2022-11-03T03:50:49.782Z,7.95
2022-11-03T03:53:19.040Z,8.03
2022-11-03T03:55:49.577Z,7.90
2022-11-03T03:58:17.051Z,7.94
2022-11-03T04:00:43.714Z,7.85
2022-11-03T04:03:21.613Z,7.73
2022-11-03T04:05:48.841Z,7.68
2022-11-03T04:08:16.924Z,7.54
2022-11-03T04:11:02.731Z,7.51
2022-11-03T04:13:49.580Z,7.50
2022-11-03T04:16:35.458Z,7.48
2022-11-03T04:19:20.704Z,7.46
2022-11-03T04:22:05.348Z,7.51
2022-11-03T04:24:34.402Z,7.37
2022-11-03T04:27:31.148Z,7.32
2022-11-03T04:30:09.795Z,7.13
2022-11-03T04:32:37.196Z,7.17
2022-11-03T04:35:25.540Z,7.23
2022-11-03T04:37:59.085Z,7.21
2022-11-03T04:40:25.772Z,7.16
2022-11-03T04:42:52.676Z,7.29
2022-11-03T04:45:32.418Z,7.10
2022-11-03T04:48:02.034Z,6.99
2022-11-03T04:50:28.626Z,7.03
2022-11-03T04:52:57.187Z,6.92
2022-11-03T04:55:24.600Z,6.86
2022-11-03T04:58:00.219Z,6.71
2022-11-03T05:00:27.060Z,6.82
2022-11-03T05:02:56.136Z,6.88
2022-11-03T05:05:26.068Z,6.67
2022-11-03T05:07:55.485Z,6.69
2022-11-03T05:10:27.972Z,6.69
2022-11-03T05:12:55.880Z,6.31
2022-11-03T05:15:42.621Z,6.36
2022-11-03T05:18:20.198Z,6.47
2022-11-03T05:20:54.028Z,6.31
2022-11-03T05:23:21.539Z,6.27
2022-11-03T05:25:52.539Z,6.12
2022-11-03T05:28:39.579Z,6.06
2022-11-03T05:31:20.292Z,6.14
2022-11-03T05:33:47.402Z,6.13
2022-11-03T05:36:19.132Z,6.00
2022-11-03T05:38:45.961Z,5.96
2022-11-03T05:41:19.860Z,5.89
2022-11-03T05:44:01.874Z,5.96
2022-11-03T05:46:35.053Z,5.95
2022-11-03T05:49:02.961Z,5.75
2022-11-03T05:51:38.012Z,5.80
2022-11-03T05:54:14.410Z,5.71
2022-11-03T05:56:43.686Z,5.64
2022-11-03T05:59:13.735Z,5.62
2022-11-03T06:01:41.506Z,5.59
2022-11-03T06:04:28.832Z,5.77
2022-11-03T06:07:15.060Z,5.80
2022-11-03T06:09:41.711Z,5.78
2022-11-03T06:12:14.434Z,5.82
2022-11-03T06:14:41.164Z,5.60
2022-11-03T06:17:21.464Z,5.74
2022-11-03T06:19:50.154Z,5.57
2022-11-03T06:22:24.571Z,5.45
2022-11-03T06:25:09.826Z,5.55
2022-11-03T06:27:36.349Z,5.55
2022-11-03T06:30:14.525Z,5.69
2022-11-03T06:32:43.506Z,5.56
2022-11-03T06:35:12.105Z,5.74
2022-11-03T06:37:38.916Z,5.66
2022-11-03T06:40:11.594Z,5.94
2022-11-03T06:42:40.016Z,6.09
2022-11-03T06:45:19.825Z,6.11
2022-11-03T06:47:47.077Z,6.00
2022-11-03T06:50:27.698Z,6.21
2022-11-03T06:52:56.079Z,6.17
2022-11-03T06:55:26.462Z,6.30
2022-11-03T06:58:04.076Z,6.26
2022-11-03T07:00:36.332Z,6.24
2022-11-03T07:03:17.455Z,6.33
2022-11-03T07:05:47.796Z,6.42
2022-11-03T07:08:17.374Z,6.45
2022-11-03T07:10:44.145Z,6.41
2022-11-03T07:13:15.554Z,6.46
2022-11-03T07:15:44.048Z,6.49
2022-11-03T07:18:39.641Z,6.53
2022-11-03T07:21:43.866Z,6.61
2022-11-03T07:24:22.454Z,6.64
2022-11-03T07:26:53.923Z,6.76
2022-11-03T07:29:26.999Z,6.84
2022-11-03T07:31:54.658Z,6.97
2022-11-03T07:34:25.243Z,6.99
2022-11-03T07:36:55.977Z,7.02
2022-11-03T07:39:25.236Z,7.11
2022-11-03T07:41:54.533Z,7.09
2022-11-03T07:44:21.498Z,7.09
2022-11-03T07:46:50.143Z,7.12
2022-11-03T07:49:26.725Z,7.26
2022-11-03T07:51:54.414Z,7.39
2022-11-03T07:54:24.768Z,7.42
2022-11-03T07:57:41.023Z,7.73
2022-11-03T08:00:17.267Z,7.73
2022-11-03T08:02:50.704Z,7.76
2022-11-03T08:05:17.328Z,7.75
2022-11-03T08:07:50.705Z,7.95
2022-11-03T08:10:21.396Z,8.08
2022-11-03T08:12:50.343Z,8.28
2022-11-03T08:15:16.978Z,8.40
2022-11-03T08:17:43.522Z,8.39
2022-11-03T08:20:10.489Z,8.38
2022-11-03T08:22:37.088Z,8.49
2022-11-03T08:25:06.694Z,8.67
2022-11-03T08:27:33.315Z,8.67
2022-11-03T08:30:00.009Z,8.69
2022-11-03T08:32:26.784Z,8.64
2022-11-03T08:34:53.350Z,8.82
2022-11-03T08:37:19.898Z,8.81
2022-11-03T08:39:46.450Z,8.86
2022-11-03T08:42:13.008Z,8.88
2022-11-03T08:44:39.571Z,8.80
2022-11-03T08:47:06.124Z,8.91
2022-11-03T08:49:32.692Z,8.98
2022-11-03T08:51:59.265Z,9.09
2022-11-03T08:54:26.511Z,9.09
2022-11-03T08:56:53.044Z,9.14
2022-11-03T08:59:19.643Z,9.24
2022-11-03T09:01:48.517Z,9.39
2022-11-03T09:04:15.177Z,9.39
2022-11-03T09:06:41.762Z,9.31
2022-11-03T09:11:54.842Z,9.33
2022-11-03T09:14:21.404Z,9.43
2022-11-03T09:16:47.927Z,9.40
2022-11-03T09:19:14.457Z,9.44
2022-11-03T09:21:41.003Z,9.51
2022-11-03T09:24:07.850Z,9.56
2022-11-03T09:26:34.419Z,9.58
2022-11-03T09:29:00.987Z,9.70
2022-11-03T09:31:29.169Z,9.74
2022-11-03T09:33:56.065Z,9.83
2022-11-03T09:36:22.622Z,9.86
2022-11-03T09:38:49.272Z,9.90
2022-11-03T09:41:26.625Z,9.80
2022-11-03T09:43:57.539Z,9.86
2022-11-03T09:46:25.518Z,9.97
2022-11-03T09:48:54.925Z,10.09
2022-11-03T09:51:22.723Z,10.24
2022-11-03T09:53:49.799Z,10.26
2022-11-03T09:56:22.941Z,10.42
2022-11-03T09:58:54.105Z,10.31
2022-11-03T10:01:21.130Z,10.32
2022-11-03T10:03:47.797Z,10.45
2022-11-03T10:06:16.989Z,10.39
2022-11-03T10:08:48.337Z,10.57
2022-11-03T10:11:17.556Z,10.83
2022-11-03T10:13:49.136Z,10.76
2022-11-03T10:16:18.520Z,10.79
2022-11-03T10:18:47.521Z,11.05
2022-11-03T10:21:27.297Z,10.88
2022-11-03T10:23:53.968Z,10.90
2022-11-03T10:26:21.643Z,11.33
2022-11-03T10:29:06.079Z,11.36
2022-11-03T10:31:38.166Z,11.77
2022-11-03T10:34:06.827Z,11.67
2022-11-03T10:36:34.557Z,11.58
2022-11-03T10:39:23.852Z,11.56
2022-11-03T10:42:00.215Z,11.75
2022-11-03T10:44:28.758Z,11.61
2022-11-03T10:47:00.495Z,11.67
2022-11-03T10:49:39.385Z,11.71
2022-11-03T10:52:20.732Z,11.84
2022-11-03T10:54:47.919Z,12.00
2022-11-03T10:57:15.515Z,12.42
2022-11-03T10:59:43.401Z,12.29
2022-11-03T11:02:17.624Z,12.58
2022-11-03T11:04:46.478Z,12.69
2022-11-03T11:07:38.588Z,12.45
2022-11-03T11:10:18.030Z,12.62
2022-11-03T11:13:05.747Z,12.66
2022-11-03T11:15:43.478Z,12.87
2022-11-03T11:18:11.043Z,12.90
2022-11-03T11:20:41.968Z,12.86
2022-11-03T11:23:27.186Z,12.90
2022-11-03T11:26:09.219Z,13.01
2022-11-03T11:28:39.757Z,13.47
2022-11-03T11:31:28.122Z,13.63
2022-11-03T11:34:09.980Z,13.51
2022-11-03T11:36:37.923Z,13.25
2022-11-03T11:39:10.631Z,13.13
2022-11-03T11:42:05.422Z,13.30
2022-11-03T11:44:47.126Z,13.27
2022-11-03T11:47:44.234Z,13.65
2022-11-03T11:50:28.027Z,14.15
2022-11-03T11:53:09.929Z,14.37
2022-11-03T11:55:47.816Z,14.37
2022-11-03T11:58:22.835Z,14.69
2022-11-03T12:00:58.817Z,15.14
2022-11-03T12:03:38.984Z,15.11
2022-11-03T12:06:06.108Z,15.22
2022-11-03T12:08:32.921Z,15.06
2022-11-03T12:11:02.415Z,14.80
2022-11-03T12:13:42.241Z,14.91
2022-11-03T12:16:09.335Z,14.88
2022-11-03T12:18:41.673Z,14.72
2022-11-03T12:21:14.750Z,14.56
2022-11-03T12:23:47.549Z,14.52
2022-11-03T12:26:38.107Z,14.59
2022-11-03T12:29:08.459Z,14.48
2022-11-03T12:31:37.408Z,14.47
2022-11-03T12:34:03.947Z,14.72
2022-11-03T12:36:30.459Z,14.71
2022-11-03T12:38:57.000Z,14.64
2022-11-03T12:41:27.019Z,14.65
2022-11-03T12:43:57.357Z,14.80
2022-11-03T12:46:24.130Z,14.88
2022-11-03T12:48:50.954Z,14.84
2022-11-03T12:51:20.546Z,14.87
2022-11-03T12:53:47.075Z,14.97
2022-11-03T12:56:15.088Z,14.91
2022-11-03T12:58:42.049Z,14.88
2022-11-03T13:01:11.125Z,14.98
2022-11-03T13:03:37.762Z,15.08
2022-11-03T13:06:05.629Z,15.16
2022-11-03T13:08:32.298Z,15.05
2022-11-03T13:11:01.179Z,15.06
2022-11-03T13:13:30.546Z,14.97
2022-11-03T13:15:57.316Z,14.92
2022-11-03T13:18:24.019Z,14.95
2022-11-03T13:20:52.928Z,15.02
2022-11-03T13:23:22.972Z,14.97
2022-11-03T13:25:49.867Z,14.98
2022-11-03T13:28:16.430Z,15.04
2022-11-03T13:30:43.683Z,14.97
2022-11-03T13:33:10.832Z,14.99
2022-11-03T13:35:37.654Z,14.96
2022-11-03T13:38:04.202Z,14.98
2022-11-03T13:43:17.282Z,15.08
2022-11-03T13:45:46.173Z,15.08
2022-11-03T13:51:03.763Z,15.17
2022-11-03T13:56:21.181Z,15.23
2022-11-03T14:01:36.008Z,15.27
2022-11-03T14:06:49.757Z,15.22
2022-11-03T14:09:16.276Z,15.03
2022-11-03T14:12:03.782Z,15.00
2022-11-03T14:14:32.862Z,14.93
2022-11-03T14:16:59.642Z,14.84
2022-11-03T14:19:34.484Z,14.85
2022-11-03T14:22:05.682Z,14.77
2022-11-03T14:24:32.130Z,14.70
2022-11-03T14:26:58.638Z,14.62
2022-11-03T14:29:25.127Z,14.61
2022-11-03T14:31:51.587Z,14.92
2022-11-03T14:34:20.473Z,14.80
2022-11-03T14:36:47.082Z,14.79
2022-11-03T14:39:13.614Z,14.59
2022-11-03T14:41:58.999Z,14.56
2022-11-03T14:44:27.789Z,14.46
2022-11-03T14:46:56.878Z,14.27
2022-11-03T14:49:23.917Z,14.08
2022-11-03T14:51:51.181Z,14.08
2022-11-03T14:54:17.733Z,13.87
2022-11-03T14:56:47.778Z,13.97
2022-11-03T14:59:14.417Z,13.88
2022-11-03T15:01:43.402Z,13.89
2022-11-03T15:04:10.240Z,13.95
2022-11-03T15:06:36.827Z,14.00
2022-11-03T15:09:04.699Z,13.97
2022-11-03T15:11:31.535Z,13.84
2022-11-03T15:13:58.164Z,13.78
2022-11-03T15:16:25.272Z,13.66
2022-11-03T15:18:52.113Z,13.61
2022-11-03T15:21:18.709Z,13.57
2022-11-03T15:26:31.800Z,13.43
2022-11-03T15:28:58.507Z,13.28
2022-11-03T15:31:25.025Z,13.11
2022-11-03T15:33:54.186Z,12.96
2022-11-03T15:36:20.913Z,13.05
2022-11-03T15:38:47.379Z,13.05
2022-11-03T15:41:19.596Z,12.89
2022-11-03T15:43:52.514Z,12.99
2022-11-03T15:46:20.273Z,12.86
2022-11-03T15:48:49.369Z,12.51
2022-11-03T15:51:16.267Z,12.24
2022-11-03T15:53:45.167Z,12.21
2022-11-03T15:56:11.733Z,12.16
2022-11-03T15:58:38.582Z,12.15
2022-11-03T16:01:07.463Z,12.00
2022-11-03T16:03:38.845Z,11.98
2022-11-03T16:06:05.825Z,11.79
2022-11-03T16:08:32.393Z,11.77
2022-11-03T16:10:58.887Z,11.72
2022-11-03T16:13:25.724Z,11.81
2022-11-03T16:15:54.851Z,11.97
2022-11-03T16:18:21.663Z,11.91
2022-11-03T16:20:48.269Z,11.95
2022-11-03T16:23:14.812Z,11.78
2022-11-03T16:25:41.383Z,11.61
2022-11-03T16:28:08.192Z,11.49
2022-11-03T16:30:35.459Z,11.52
2022-11-03T16:33:02.115Z,11.38
2022-11-03T16:35:30.859Z,11.29
2022-11-03T16:37:57.417Z,11.22
2022-11-03T16:40:23.961Z,11.20
2022-11-03T16:42:52.739Z,11.34
2022-11-03T16:45:22.073Z,11.40
2022-11-03T16:47:51.309Z,11.30
2022-11-03T16:50:19.157Z,11.26
2022-11-03T16:52:52.604Z,11.17
2022-11-03T16:55:19.800Z,11.13
2022-11-03T16:57:48.820Z,11.10
2022-11-03T17:00:18.153Z,11.16
2022-11-03T17:02:46.481Z,11.21
2022-11-03T17:05:17.643Z,11.12
2022-11-03T17:07:50.101Z,10.89
2022-11-03T17:10:19.758Z,10.90
2022-11-03T17:12:48.804Z,10.89
2022-11-03T17:15:17.670Z,10.88
2022-11-03T17:17:44.286Z,10.79
2022-11-03T17:20:12.109Z,10.59
2022-11-03T17:22:39.129Z,10.61
2022-11-03T17:25:07.821Z,10.74
2022-11-03T17:27:43.350Z,10.59
2022-11-03T17:30:22.291Z,10.44
2022-11-03T17:32:50.889Z,10.66
2022-11-03T17:35:24.610Z,10.74
2022-11-03T17:37:52.036Z,10.64
2022-11-03T17:40:21.612Z,10.62
2022-11-03T17:42:49.719Z,10.58
2022-11-03T17:45:21.173Z,10.50
2022-11-03T17:47:49.673Z,10.32
2022-11-03T17:50:19.041Z,10.20
2022-11-03T17:52:47.320Z,10.28
2022-11-03T17:55:18.399Z,10.23
2022-11-03T17:57:45.571Z,10.23
2022-11-03T18:00:18.136Z,10.26
2022-11-03T18:02:45.263Z,10.14
2022-11-03T18:05:15.318Z,10.16
2022-11-03T18:07:47.440Z,10.05
2022-11-03T18:10:14.669Z,10.15
2022-11-03T18:13:03.827Z,10.17
2022-11-03T18:15:31.483Z,10.27
2022-11-03T18:17:58.157Z,10.22
2022-11-03T18:20:30.496Z,10.10
2022-11-03T18:23:11.051Z,10.03
2022-11-03T18:25:37.648Z,9.92
2022-11-03T18:28:04.688Z,9.79
2022-11-03T18:30:31.459Z,9.80
2022-11-03T18:33:02.947Z,9.77
2022-11-03T18:35:33.085Z,9.72
2022-11-03T18:38:00.207Z,9.65
2022-11-03T18:40:26.860Z,9.70
2022-11-03T18:42:53.334Z,9.62
2022-11-03T18:45:20.095Z,9.69
2022-11-03T18:47:46.934Z,9.61
2022-11-03T18:50:15.657Z,9.71
2022-11-03T18:52:48.263Z,9.72
2022-11-03T18:55:17.316Z,9.71
2022-11-03T18:57:46.400Z,9.81
2022-11-03T19:00:19.610Z,9.57
2022-11-03T19:02:48.720Z,9.57
2022-11-03T19:05:16.324Z,9.65
2022-11-03T19:07:45.949Z,9.75
2022-11-03T19:10:15.726Z,9.64
2022-11-03T19:12:44.702Z,9.69
2022-11-03T19:15:23.920Z,9.53
2022-11-03T19:17:54.699Z,9.46
2022-11-03T19:20:21.775Z,9.56
2022-11-03T19:22:48.563Z,9.58
2022-11-03T19:25:15.706Z,9.50
2022-11-03T19:28:05.798Z,9.54
2022-11-03T19:30:32.577Z,9.43
2022-11-03T19:32:59.173Z,9.57
2022-11-03T19:45:58.277Z,9.50
2022-11-03T19:48:29.781Z,9.49
2022-11-03T19:50:56.873Z,9.56
2022-11-03T19:53:31.406Z,9.46
2022-11-03T19:55:58.278Z,9.55
2022-11-03T19:58:27.767Z,9.57
2022-11-03T20:00:57.589Z,9.61
2022-11-03T20:03:25.195Z,9.62
2022-11-03T20:05:54.916Z,9.56
2022-11-03T20:08:27.577Z,9.57
2022-11-03T20:10:59.135Z,9.42
2022-11-03T20:13:30.276Z,9.39
2022-11-03T20:16:00.541Z,9.40
2022-11-03T20:18:30.834Z,9.41
2022-11-03T20:20:58.302Z,9.31
2022-11-03T20:23:30.916Z,9.34
2022-11-03T20:26:00.228Z,9.36
2022-11-03T20:28:30.066Z,9.37
2022-11-03T20:30:57.530Z,9.37
2022-11-03T20:33:24.947Z,9.58
2022-11-03T20:35:53.445Z,9.46
2022-11-03T20:38:22.904Z,9.48
2022-11-03T20:40:55.540Z,9.51
2022-11-03T20:43:26.696Z,9.56
2022-11-03T20:45:56.760Z,9.47
2022-11-03T20:48:24.411Z,9.42
2022-11-03T20:50:54.141Z,9.40
2022-11-03T20:53:58.055Z,9.36
2022-11-03T20:56:28.620Z,9.51
2022-11-03T20:58:56.058Z,9.50
2022-11-03T21:01:26.920Z,9.59
2022-11-03T21:03:59.305Z,9.63
2022-11-03T21:06:29.812Z,9.63
2022-11-03T21:08:57.357Z,9.56
2022-11-03T21:11:29.456Z,9.58
2022-11-03T21:14:16.059Z,9.52
2022-11-03T21:17:01.520Z,9.55
2022-11-03T21:19:49.690Z,9.48
2022-11-03T21:22:51.922Z,9.41
2022-11-03T21:25:22.234Z,9.39
2022-11-03T21:27:51.977Z,9.38
2022-11-03T21:30:18.729Z,9.42
2022-11-03T21:32:45.791Z,9.43
2022-11-03T21:35:18.295Z,9.40
2022-11-03T21:37:45.304Z,9.41
2022-11-03T21:40:12.088Z,9.45
2022-11-03T21:42:57.292Z,9.35
2022-11-03T21:45:23.946Z,9.39
2022-11-03T21:48:13.562Z,9.39
2022-11-03T21:50:41.151Z,9.45
2022-11-03T21:53:10.332Z,9.50
2022-11-03T21:55:37.202Z,9.43
2022-11-03T21:58:04.627Z,9.46
2022-11-03T22:00:31.725Z,9.58
2022-11-03T22:02:59.266Z,9.43
2022-11-03T22:05:26.597Z,9.32
2022-11-03T22:07:53.181Z,9.38
2022-11-03T22:10:20.632Z,9.43
2022-11-03T22:12:47.225Z,9.36
2022-11-03T22:15:32.278Z,9.34
2022-11-03T22:18:03.171Z,9.32
2022-11-03T22:20:48.170Z,9.43
2022-11-03T22:23:34.206Z,9.42
2022-11-03T22:26:19.829Z,9.40
2022-11-03T22:29:11.438Z,9.43
2022-11-03T22:31:40.569Z,9.46
2022-11-03T22:34:25.596Z,9.35
2022-11-03T22:36:52.163Z,9.41
2022-11-03T22:39:37.214Z,9.48
2022-11-03T22:42:25.248Z,9.41
2022-11-03T22:45:10.008Z,9.27
2022-11-03T22:47:36.588Z,9.28
2022-11-03T22:50:03.096Z,9.35
2022-11-03T22:52:29.615Z,9.28
2022-11-03T22:54:56.120Z,9.32
2022-11-03T22:57:23.164Z,9.30
2022-11-03T22:59:49.703Z,9.37
2022-11-03T23:02:16.280Z,9.20
2022-11-03T23:04:42.821Z,9.16
2022-11-03T23:07:09.353Z,9.20
2022-11-03T23:09:35.870Z,9.30
2022-11-03T23:12:02.392Z,9.38
2022-11-03T23:14:53.751Z,9.35
2022-11-03T23:17:40.683Z,9.38
2022-11-03T23:20:27.167Z,9.36
2022-11-03T23:22:53.680Z,9.55
2022-11-03T23:25:20.215Z,9.51
2022-11-03T23:27:46.733Z,9.60
2022-11-03T23:30:13.371Z,9.62
2022-11-03T23:32:39.903Z,9.51
2022-11-03T23:35:06.700Z,9.63
2022-11-03T23:37:33.328Z,9.69
2022-11-03T23:39:59.859Z,9.72
2022-11-03T23:42:26.472Z,9.76
2022-11-03T23:45:11.574Z,9.74
2022-11-03T23:47:56.353Z,9.74
2022-11-03T23:50:22.850Z,9.77
2022-11-03T23:52:49.504Z,9.65
2022-11-03T23:55:16.004Z,9.62
2022-11-03T23:58:00.735Z,9.69
